Time;durP1;ratioP1;P1;durP2;ratioP2;P2;SDS_P1;SDS_P2;PMS_P1;PMS_P2;Temp;Humidity;BMP_temperature;BMP_pressure;BME280_temperature;BME280_humidity;BME280_pressure;Samples;Min_cycle;Max_cycle;Signal;HPM_P1;HPM_P2
2023/03/20 00:00:17;;;;;;;14.95;7.72;;;;;;;12.60;59.90;99747.28;4381756;32;20090;-83
2023/03/20 00:02:42;;;;;;;14.75;7.55;;;;;;;12.57;59.89;99749.19;4394492;32;20110;-84
2023/03/20 00:05:17;;;;;;;14.13;6.95;;;;;;;12.52;59.90;99741.50;4382223;32;20149;-84
2023/03/20 00:07:43;;;;;;;12.93;7.30;;;;;;;12.50;59.89;99750.31;4408967;32;20107;-84
2023/03/20 00:10:09;;;;;;;13.75;7.10;;;;;;;12.43;59.89;99749.72;4382316;32;20073;-83
2023/03/20 00:12:35;;;;;;;13.18;7.40;;;;;;;12.37;59.89;99744.75;4394968;32;20125;-84
2023/03/20 00:15:00;;;;;;;17.00;7.12;;;;;;;12.34;59.88;99741.41;4382313;32;20483;-83
2023/03/20 00:17:26;;;;;;;18.05;7.75;;;;;;;12.39;59.89;99744.69;4382342;32;20414;-84
2023/03/20 00:19:51;;;;;;;15.65;7.65;;;;;;;12.40;59.88;99742.00;4408346;32;20130;-83
2023/03/20 00:22:17;;;;;;;17.17;7.28;;;;;;;12.31;59.88;99744.16;4394130;32;21159;-83
2023/03/20 00:24:42;;;;;;;14.35;8.02;;;;;;;12.39;59.88;99748.16;4394214;32;23104;-83
2023/03/20 00:27:11;;;;;;;13.73;6.50;;;;;;;12.29;59.88;99758.09;4382063;32;20105;-83
2023/03/20 00:29:36;;;;;;;15.80;7.65;;;;;;;12.17;59.87;99762.94;4382293;32;20439;-83
2023/03/20 00:32:01;;;;;;;14.90;7.57;;;;;;;12.11;59.87;99756.19;4381566;32;20138;-84
2023/03/20 00:34:28;;;;;;;13.02;6.47;;;;;;;11.96;59.87;99752.41;4381768;32;20150;-84
2023/03/20 00:36:55;;;;;;;13.70;6.37;;;;;;;11.96;59.85;99751.56;4382205;32;20086;-83
2023/03/20 00:39:21;;;;;;;16.48;7.55;;;;;;;11.95;59.85;99749.84;4382149;32;20137;-82
2023/03/20 00:41:51;;;;;;;15.15;7.47;;;;;;;12.04;59.87;99757.31;4382228;32;20161;-84
2023/03/20 00:44:19;;;;;;;12.18;6.65;;;;;;;12.03;59.86;99750.41;4394590;32;20106;-84
2023/03/20 00:46:45;;;;;;;13.57;6.95;;;;;;;11.91;59.86;99750.88;4408538;32;20102;-83
2023/03/20 00:49:11;;;;;;;14.90;6.93;;;;;;;11.89;59.86;99748.34;4382152;32;20083;-83
2023/03/20 00:51:37;;;;;;;11.30;6.62;;;;;;;11.82;59.86;99746.84;4382132;32;20212;-83
2023/03/20 00:54:08;;;;;;;16.77;7.68;;;;;;;11.80;59.85;99751.25;4394504;32;20124;-84
2023/03/20 00:56:35;;;;;;;14.23;7.95;;;;;;;11.92;59.86;99745.59;4382347;32;20451;-83
2023/03/20 00:59:01;;;;;;;15.85;8.07;;;;;;;12.08;59.87;99750.25;4382079;32;20386;-83
2023/03/20 01:01:27;;;;;;;15.35;6.68;;;;;;;11.92;59.86;99747.38;4381930;32;20094;-83
2023/03/20 01:03:52;;;;;;;19.12;8.02;;;;;;;11.77;59.85;99745.28;4381906;32;20101;-82
2023/03/20 01:06:17;;;;;;;17.37;8.10;;;;;;;11.69;59.85;99748.19;4381444;32;20169;-83
2023/03/20 01:08:43;;;;;;;12.77;7.45;;;;;;;12.01;59.86;99749.63;4394299;32;20268;-84
2023/03/20 01:11:08;;;;;;;18.87;7.80;;;;;;;11.80;59.85;99751.25;4381840;32;20145;-83
2023/03/20 01:13:34;;;;;;;15.30;7.72;;;;;;;11.52;59.83;99760.97;4393895;32;22306;-83
2023/03/20 01:16:00;;;;;;;17.60;8.00;;;;;;;11.52;59.83;99747.94;4381725;32;20129;-84
2023/03/20 01:18:25;;;;;;;13.70;7.25;;;;;;;11.46;59.83;99748.16;4394400;32;20090;-83
2023/03/20 01:20:54;;;;;;;15.43;6.90;;;;;;;11.47;59.84;99744.66;4394131;32;20120;-83
2023/03/20 01:23:19;;;;;;;14.57;7.60;;;;;;;11.46;59.84;99745.56;4382242;32;20155;-83
2023/03/20 01:25:45;;;;;;;13.35;6.95;;;;;;;11.37;59.83;99754.56;4381591;32;20142;-83
2023/03/20 01:28:17;;;;;;;15.50;7.55;;;;;;;11.33;59.83;99739.91;4394167;32;20103;-83
2023/03/20 01:30:42;;;;;;;14.25;7.93;;;;;;;11.26;59.83;99735.81;4394226;32;20132;-83
2023/03/20 01:33:13;;;;;;;13.30;7.68;;;;;;;11.29;59.83;99731.34;4394127;32;20098;-83
2023/03/20 01:35:39;;;;;;;13.82;7.90;;;;;;;11.22;59.82;99727.28;4381673;32;20086;-83
2023/03/20 01:38:22;;;;;;;15.25;6.95;;;;;;;11.46;59.84;99729.91;4381445;32;20153;-83
2023/03/20 01:40:53;;;;;;;14.25;6.75;;;;;;;11.44;59.82;99729.13;4382680;32;20094;-83
2023/03/20 01:43:20;;;;;;;13.15;7.03;;;;;;;11.20;59.82;99730.84;4381539;32;20422;-83
2023/03/20 01:46:02;;;;;;;14.82;7.53;;;;;;;11.11;59.81;99731.97;4393985;32;20090;-83
2023/03/20 01:48:49;;;;;;;10.13;6.25;;;;;;;11.15;59.82;99733.59;4383879;32;20470;-83
2023/03/20 01:51:15;;;;;;;10.70;6.57;;;;;;;11.00;59.81;99734.97;4409316;32;20146;-83
2023/03/20 01:53:41;;;;;;;14.27;6.87;;;;;;;11.05;59.82;99730.44;4383351;32;20136;-83
2023/03/20 01:56:06;;;;;;;15.75;7.55;;;;;;;11.05;59.81;99737.41;4382593;32;21884;-83
2023/03/20 01:58:36;;;;;;;14.40;7.20;;;;;;;10.94;59.80;99731.72;4383302;32;20104;-83
2023/03/20 02:01:01;;;;;;;12.13;7.10;;;;;;;10.88;59.80;99730.16;4383515;32;20176;-83
2023/03/20 02:03:26;;;;;;;14.57;6.87;;;;;;;10.81;59.79;99722.62;4383081;32;20568;-83
2023/03/20 02:05:52;;;;;;;12.63;6.80;;;;;;;10.82;59.80;99719.97;4409043;32;24572;-86
2023/03/20 02:08:27;;;;;;;14.75;7.18;;;;;;;10.98;59.80;99721.16;4383131;32;20117;-85
2023/03/20 02:10:52;;;;;;;13.18;6.85;;;;;;;10.88;59.80;99727.56;4383725;32;20128;-85
2023/03/20 02:13:18;;;;;;;17.05;7.55;;;;;;;10.83;59.79;99726.00;4382924;32;20431;-85
2023/03/20 02:15:57;;;;;;;11.10;6.43;;;;;;;10.81;59.80;99725.22;4383025;32;20133;-85
2023/03/20 02:18:23;;;;;;;12.43;7.30;;;;;;;10.77;59.80;99725.31;4383159;32;20094;-83
2023/03/20 02:21:26;;;;;;;12.60;7.20;;;;;;;10.73;59.79;99725.47;4382846;32;20741;-84
2023/03/20 02:24:46;;;;;;;12.85;5.95;;;;;;;10.81;59.80;99715.66;4409596;32;20154;-84
2023/03/20 02:27:17;;;;;;;15.63;6.72;;;;;;;10.71;59.78;99717.72;4347403;33;20109;-83
2023/03/20 02:30:07;;;;;;;13.18;7.32;;;;;;;10.66;59.78;99717.03;4387841;32;20122;-84
2023/03/20 02:32:57;;;;;;;12.93;7.03;;;;;;;10.69;59.79;99713.47;4409733;32;20121;-84
2023/03/20 02:35:47;;;;;;;12.60;6.75;;;;;;;10.65;59.78;99711.87;4409728;32;20106;-84
2023/03/20 02:38:13;;;;;;;15.77;7.35;;;;;;;10.52;59.77;99714.00;4409394;32;20090;-83
2023/03/20 02:40:43;;;;;;;16.77;7.30;;;;;;;10.66;59.78;99706.63;4409279;32;20468;-83
2023/03/20 02:43:11;;;;;;;11.82;6.80;;;;;;;10.59;59.78;99697.28;4395333;32;20411;-83
2023/03/20 02:45:47;;;;;;;13.98;7.28;;;;;;;10.32;59.77;99706.00;4409432;32;20117;-83
2023/03/20 02:48:14;;;;;;;17.45;7.80;;;;;;;10.29;59.77;99699.13;4383438;32;20085;-83
2023/03/20 02:50:51;;;;;;;14.18;6.87;;;;;;;10.37;59.77;99694.53;4395551;32;20087;-84
2023/03/20 02:53:43;;;;;;;15.07;7.87;;;;;;;10.31;59.76;99697.34;4395856;32;20086;-84
2023/03/20 02:56:19;;;;;;;17.45;7.43;;;;;;;10.33;59.77;99699.88;4384193;32;20110;-84
2023/03/20 02:58:50;;;;;;;13.60;7.05;;;;;;;10.18;59.76;99696.00;4382934;32;20157;-84
2023/03/20 03:01:25;;;;;;;16.75;7.93;;;;;;;9.97;59.75;99707.91;4382861;32;20117;-84
2023/03/20 03:03:56;;;;;;;19.05;7.65;;;;;;;9.97;59.75;99707.91;4382866;32;20099;-84
2023/03/20 03:06:35;;;;;;;20.08;7.37;;;;;;;10.14;59.75;99704.78;4382739;32;20102;-84
2023/03/20 03:09:04;;;;;;;14.35;6.90;;;;;;;9.67;59.73;99714.00;4382702;32;20081;-84
2023/03/20 03:11:31;;;;;;;15.70;7.25;;;;;;;9.70;59.73;99708.69;4382761;32;20139;-84
2023/03/20 03:13:57;;;;;;;15.57;7.57;;;;;;;9.57;59.73;99720.34;4382927;32;20120;-84
2023/03/20 03:16:30;;;;;;;14.90;7.43;;;;;;;9.68;59.73;99710.50;4394782;32;24339;-83
2023/03/20 03:19:05;;;;;;;13.23;7.00;;;;;;;9.59;59.73;99718.56;4382654;32;20082;-84
2023/03/20 03:21:30;;;;;;;18.20;7.12;;;;;;;9.66;59.74;99717.47;4409101;32;20130;-84
2023/03/20 03:23:56;;;;;;;16.77;7.65;;;;;;;9.44;59.72;99723.28;4382057;32;20097;-83
2023/03/20 03:26:30;;;;;;;14.52;7.47;;;;;;;9.27;59.72;99729.84;4382385;32;21752;-83
2023/03/20 03:29:23;;;;;;;14.07;6.97;;;;;;;9.09;59.70;99731.19;4383318;32;20537;-83
2023/03/20 03:31:48;;;;;;;16.35;7.53;;;;;;;9.17;59.70;99726.63;4392877;32;20101;-83
2023/03/20 03:34:15;;;;;;;12.68;6.75;;;;;;;8.96;59.70;99728.03;4382502;32;20138;-83
2023/03/20 03:36:56;;;;;;;15.55;7.57;;;;;;;8.82;59.69;99728.41;4382586;32;20589;-83
2023/03/20 03:39:31;;;;;;;18.65;6.95;;;;;;;8.80;59.68;99725.00;4395121;32;20160;-83
2023/03/20 03:42:02;;;;;;;16.60;5.82;;;;;;;8.89;59.69;99723.91;4409112;32;20132;-83
2023/03/20 03:44:35;;;;;;;12.55;6.10;;;;;;;9.02;59.69;99734.84;4408496;32;20094;-83
2023/03/20 03:47:20;;;;;;;13.18;6.32;;;;;;;9.21;59.71;99726.50;4383328;32;20106;-84
2023/03/20 03:49:48;;;;;;;13.82;6.47;;;;;;;9.07;59.69;99731.22;4382826;32;20133;-84
2023/03/20 03:52:15;;;;;;;13.35;6.80;;;;;;;8.99;59.69;99737.50;4382938;32;20110;-84
2023/03/20 03:54:49;;;;;;;13.62;6.30;;;;;;;9.11;59.69;99735.44;4382742;32;20184;-84
2023/03/20 03:57:16;;;;;;;11.95;7.05;;;;;;;9.17;59.70;99739.63;4382919;32;20462;-82
2023/03/20 03:59:47;;;;;;;13.48;7.10;;;;;;;9.22;59.70;99745.53;4382688;32;20079;-82
2023/03/20 04:02:12;;;;;;;14.87;7.75;;;;;;;9.07;59.69;99754.59;4382752;32;20109;-83
2023/03/20 04:04:41;;;;;;;13.25;7.10;;;;;;;9.04;59.70;99746.91;4382185;32;20109;-83
2023/03/20 04:07:07;;;;;;;15.73;7.40;;;;;;;8.97;59.69;99745.31;4382678;32;20098;-83
2023/03/20 04:09:32;;;;;;;14.25;7.85;;;;;;;8.89;59.69;99744.69;4394589;32;20082;-83
2023/03/20 04:11:57;;;;;;;13.10;6.68;;;;;;;8.84;59.68;99747.41;4394995;32;20135;-83
2023/03/20 04:14:23;;;;;;;14.82;7.18;;;;;;;8.88;59.68;99755.94;4394678;32;20196;-83
2023/03/20 04:16:49;;;;;;;14.87;6.85;;;;;;;8.86;59.68;99750.81;4382514;32;20106;-83
2023/03/20 04:19:14;;;;;;;12.77;6.90;;;;;;;8.52;59.67;99761.16;4382432;32;20101;-83
2023/03/20 04:21:40;;;;;;;16.58;7.32;;;;;;;8.50;59.66;99762.06;4395051;32;20384;-83
2023/03/20 04:24:06;;;;;;;13.82;7.28;;;;;;;8.45;59.66;99759.56;4395007;32;20161;-84
2023/03/20 04:26:31;;;;;;;15.25;7.12;;;;;;;8.55;59.67;99755.91;4382548;32;20116;-83
2023/03/20 04:28:56;;;;;;;12.50;6.47;;;;;;;8.32;59.65;99768.50;4382229;32;20094;-83
2023/03/20 04:31:22;;;;;;;15.82;6.68;;;;;;;8.63;59.67;99768.69;4394914;32;20086;-83
2023/03/20 04:33:47;;;;;;;12.88;7.12;;;;;;;8.67;59.67;99769.44;4394653;32;21861;-84
2023/03/20 04:36:13;;;;;;;16.20;6.95;;;;;;;8.64;59.67;99764.34;4381842;32;26286;-82
2023/03/20 04:38:38;;;;;;;12.57;7.00;;;;;;;8.72;59.67;99762.41;4395032;32;20173;-84
2023/03/20 04:41:04;;;;;;;13.45;7.68;;;;;;;8.69;59.67;99763.34;4382477;32;20074;-83
2023/03/20 04:43:29;;;;;;;12.70;7.10;;;;;;;8.52;59.67;99762.91;4382359;32;20180;-83
2023/03/20 04:45:55;;;;;;;12.80;6.80;;;;;;;8.58;59.66;99767.94;4395057;32;20500;-83
2023/03/20 04:48:20;;;;;;;14.90;6.95;;;;;;;8.55;59.66;99757.63;4394661;32;20106;-82
2023/03/20 04:50:47;;;;;;;13.00;7.20;;;;;;;8.43;59.66;99758.75;4382031;32;20325;-83
2023/03/20 04:53:13;;;;;;;12.82;7.12;;;;;;;8.62;59.67;99751.41;4394937;32;20102;-82
2023/03/20 04:55:39;;;;;;;16.85;6.78;;;;;;;8.49;59.67;99755.16;4382237;32;20127;-83
2023/03/20 04:58:04;;;;;;;16.00;7.32;;;;;;;8.69;59.68;99755.53;4394815;32;20097;-83
2023/03/20 05:00:30;;;;;;;15.02;7.12;;;;;;;8.55;59.67;99757.63;4381639;32;20185;-83
2023/03/20 05:02:55;;;;;;;13.75;6.70;;;;;;;8.32;59.66;99764.19;4382199;32;20106;-84
2023/03/20 05:05:22;;;;;;;13.50;7.22;;;;;;;8.45;59.66;99758.72;4381708;32;20145;-82
2023/03/20 05:07:47;;;;;;;14.85;7.47;;;;;;;8.41;59.66;99764.87;4408530;32;20098;-83
2023/03/20 05:10:13;;;;;;;15.32;7.15;;;;;;;8.43;59.65;99768.28;4369285;32;20110;-83
2023/03/20 05:12:38;;;;;;;18.77;7.75;;;;;;;8.42;59.65;99767.44;4394029;32;20874;-84
2023/03/20 05:15:04;;;;;;;14.73;7.40;;;;;;;8.32;59.66;99771.09;4408588;32;20156;-83
2023/03/20 05:17:29;;;;;;;13.57;6.97;;;;;;;8.32;59.66;99774.56;4394229;32;20108;-83
2023/03/20 05:19:56;;;;;;;13.05;7.55;;;;;;;8.43;59.66;99774.31;4408451;32;20106;-83
2023/03/20 05:22:21;;;;;;;14.90;6.95;;;;;;;8.29;59.66;99786.75;4393454;32;20125;-84
2023/03/20 05:24:47;;;;;;;14.48;7.00;;;;;;;8.18;59.64;99783.50;4369030;32;20137;-83
2023/03/20 05:27:12;;;;;;;15.13;6.93;;;;;;;8.37;59.66;99787.44;4407896;32;20129;-82
2023/03/20 05:29:37;;;;;;;12.48;6.18;;;;;;;8.22;59.65;99788.59;4394393;32;20146;-84
2023/03/20 05:32:03;;;;;;;12.60;6.60;;;;;;;8.55;59.67;99791.38;4381614;32;20144;-85
2023/03/20 05:34:29;;;;;;;10.80;6.05;;;;;;;8.43;59.65;99786.44;4394358;32;20128;-85
2023/03/20 05:36:54;;;;;;;14.57;6.57;;;;;;;8.36;59.65;99783.12;4394416;32;20138;-84
2023/03/20 05:39:21;;;;;;;12.63;6.12;;;;;;;8.40;59.66;99787.37;4393793;32;20090;-84
2023/03/20 05:41:46;;;;;;;16.58;6.80;;;;;;;8.58;59.66;99783.50;4394355;32;20466;-85
2023/03/20 05:44:11;;;;;;;14.43;7.25;;;;;;;8.70;59.67;99790.13;4393935;32;20116;-84
2023/03/20 05:46:37;;;;;;;13.20;6.43;;;;;;;8.75;59.68;99785.69;4393866;32;20169;-84
2023/03/20 05:49:02;;;;;;;13.88;6.62;;;;;;;8.77;59.68;99795.16;4393741;32;20122;-84
2023/03/20 05:51:28;;;;;;;12.13;6.90;;;;;;;8.87;59.68;99800.97;4407983;32;20405;-84
2023/03/20 05:53:53;;;;;;;16.02;6.03;;;;;;;8.95;59.68;99790.41;4381140;32;23097;-85
2023/03/20 05:56:18;;;;;;;10.40;6.10;;;;;;;9.00;59.69;99793.75;4368918;32;20169;-85
2023/03/20 05:58:44;;;;;;;12.52;6.60;;;;;;;9.18;59.70;99794.13;4381387;32;20137;-84
2023/03/20 06:01:09;;;;;;;11.95;6.45;;;;;;;9.29;59.71;99800.81;4381303;32;20137;-83
2023/03/20 06:03:35;;;;;;;13.13;7.07;;;;;;;9.29;59.71;99806.84;4381469;32;20094;-85
2023/03/20 06:06:01;;;;;;;12.82;7.07;;;;;;;9.19;59.70;99807.94;4394107;32;20094;-85
2023/03/20 06:08:26;;;;;;;17.20;6.90;;;;;;;9.36;59.72;99804.94;4368725;32;20102;-85
2023/03/20 06:10:52;;;;;;;13.52;7.22;;;;;;;9.59;59.72;99806.91;4368200;32;22355;-85
2023/03/20 06:13:17;;;;;;;9.70;6.18;;;;;;;9.77;59.73;99802.06;4393384;32;20174;-85
2023/03/20 06:15:43;;;;;;;14.85;6.35;;;;;;;9.85;59.73;99805.31;4393711;32;20162;-85
2023/03/20 06:18:08;;;;;;;14.20;6.60;;;;;;;10.00;59.74;99808.38;4381113;32;20148;-85
2023/03/20 06:20:33;;;;;;;11.77;6.40;;;;;;;10.15;59.75;99802.72;4380653;32;20124;-84
2023/03/20 06:22:59;;;;;;;14.50;6.25;;;;;;;10.50;59.77;99806.06;4393005;32;20326;-84
2023/03/20 06:25:24;;;;;;;11.30;6.75;;;;;;;10.57;59.78;99803.19;4393428;32;20078;-85
2023/03/20 06:27:50;;;;;;;12.98;6.85;;;;;;;10.59;59.77;99804.00;4380778;32;20138;-85
2023/03/20 06:30:15;;;;;;;9.88;5.57;;;;;;;10.92;59.79;99801.25;4380640;32;20114;-86
2023/03/20 06:32:41;;;;;;;11.35;6.07;;;;;;;11.01;59.80;99795.72;4381329;32;20469;-85
2023/03/20 06:35:08;;;;;;;11.77;6.18;;;;;;;11.24;59.81;99802.78;4383158;32;20074;-85
2023/03/20 06:37:33;;;;;;;18.50;6.28;;;;;;;11.50;59.83;99802.72;4395697;32;20156;-84
2023/03/20 06:39:59;;;;;;;15.55;5.60;;;;;;;11.67;59.84;99800.38;4382801;32;20118;-85
2023/03/20 06:42:24;;;;;;;13.27;5.97;;;;;;;12.03;59.86;99804.34;4395760;32;20180;-84
2023/03/20 06:44:50;;;;;;;12.77;6.37;;;;;;;12.03;59.86;99806.94;4395722;32;20122;-85
2023/03/20 06:47:15;;;;;;;10.70;5.93;;;;;;;11.86;59.85;99802.37;4383210;32;20113;-85
2023/03/20 06:49:41;;;;;;;14.43;6.85;;;;;;;12.19;59.86;99798.50;4395305;32;20149;-85
2023/03/20 06:52:07;;;;;;;14.18;6.93;;;;;;;12.26;59.87;99799.09;4395730;32;20102;-84
2023/03/20 06:54:33;;;;;;;11.07;6.10;;;;;;;12.51;59.88;99805.09;4370494;32;20086;-85
2023/03/20 06:56:58;;;;;;;10.50;6.20;;;;;;;12.75;59.90;99799.81;4383045;32;20161;-84
2023/03/20 06:59:24;;;;;;;10.90;6.03;;;;;;;13.03;59.91;99796.94;4382584;32;20489;-85
2023/03/20 07:01:49;;;;;;;12.55;6.72;;;;;;;13.13;59.92;99798.25;4382542;32;20109;-84
2023/03/20 07:04:16;;;;;;;11.43;5.78;;;;;;;13.44;59.94;99800.44;4382620;32;23625;-85
2023/03/20 07:06:41;;;;;;;14.82;6.10;;;;;;;13.56;59.93;99797.31;4383323;32;20090;-84
2023/03/20 07:09:07;;;;;;;11.52;6.12;;;;;;;13.65;59.95;99794.28;4382963;32;20441;-85
2023/03/20 07:11:33;;;;;;;11.98;5.93;;;;;;;13.85;59.96;99792.56;4382444;32;20169;-84
2023/03/20 07:14:00;;;;;;;10.00;5.22;;;;;;;14.22;59.98;99795.22;4382914;32;20419;-84
2023/03/20 07:16:25;;;;;;;11.38;5.93;;;;;;;14.23;59.98;99794.31;4383310;32;20178;-84
2023/03/20 07:18:50;;;;;;;11.27;6.30;;;;;;;14.24;59.97;99801.25;4395175;32;20410;-85
2023/03/20 07:21:20;;;;;;;15.30;6.28;;;;;;;14.45;59.99;99804.66;4394967;32;22693;-84
2023/03/20 07:23:46;;;;;;;10.40;6.05;;;;;;;14.71;60.01;99800.81;4409271;32;20151;-84
2023/03/20 07:26:12;;;;;;;10.68;5.97;;;;;;;14.92;60.01;99793.69;4382860;32;20430;-84
2023/03/20 07:28:38;;;;;;;13.62;6.10;;;;;;;15.03;60.02;99797.44;4395573;32;20098;-84
2023/03/20 07:31:06;;;;;;;11.05;5.70;;;;;;;15.36;60.04;99787.03;4395145;32;20221;-84
2023/03/20 07:33:31;;;;;;;11.70;5.53;;;;;;;15.46;60.04;99783.97;4383012;32;20132;-84
2023/03/20 07:35:58;;;;;;;11.48;5.43;;;;;;;15.53;60.04;99783.56;4394805;32;26230;-84
2023/03/20 07:38:24;;;;;;;11.73;5.97;;;;;;;15.70;60.07;99785.34;4395461;32;20094;-85
2023/03/20 07:40:49;;;;;;;10.60;5.20;;;;;;;16.02;60.08;99788.03;4409123;32;20151;-84
2023/03/20 07:43:15;;;;;;;13.75;6.28;;;;;;;16.20;60.09;99785.25;4394841;32;21009;-85
2023/03/20 07:45:41;;;;;;;11.65;5.68;;;;;;;16.35;60.09;99788.84;4382173;32;20193;-84
2023/03/20 07:48:06;;;;;;;9.25;5.70;;;;;;;16.61;60.10;99782.13;4395208;32;20166;-85
2023/03/20 07:50:32;;;;;;;12.05;5.10;;;;;;;16.82;60.12;99786.22;4380071;32;20129;-84
2023/03/20 07:52:57;;;;;;;10.07;5.90;;;;;;;16.84;60.12;99786.97;4379919;32;20140;-84
2023/03/20 07:55:22;;;;;;;7.97;5.43;;;;;;;17.00;60.13;99792.16;4380234;32;20124;-85
2023/03/20 07:57:51;;;;;;;8.90;5.37;;;;;;;17.11;60.13;99797.66;4379861;32;20376;-84
2023/03/20 08:00:17;;;;;;;8.68;5.20;;;;;;;17.36;60.14;99797.06;4380721;32;20132;-84
2023/03/20 08:02:43;;;;;;;10.27;5.70;;;;;;;17.46;60.16;99797.38;4380129;32;20150;-84
2023/03/20 08:05:08;;;;;;;10.50;6.62;;;;;;;17.38;60.14;99791.72;4379746;32;22928;-84
2023/03/20 08:07:34;;;;;;;9.43;5.53;;;;;;;17.71;60.17;99789.72;4393873;32;20149;-85
2023/03/20 08:09:59;;;;;;;11.23;5.40;;;;;;;17.82;60.18;99790.88;4393817;32;20483;-85
2023/03/20 08:12:25;;;;;;;8.23;5.12;;;;;;;18.02;60.18;99793.97;4379976;32;20407;-85
2023/03/20 08:14:51;;;;;;;10.30;5.25;;;;;;;18.30;60.20;99789.63;4379992;32;20137;-85
2023/03/20 08:17:16;;;;;;;9.07;5.65;;;;;;;18.32;60.20;99793.00;4380315;32;20428;-85
2023/03/20 08:19:42;;;;;;;10.48;5.80;;;;;;;18.67;60.21;99786.34;4380001;32;20087;-85
2023/03/20 08:22:07;;;;;;;10.45;5.70;;;;;;;18.51;60.21;99780.34;4379889;32;20164;-84
2023/03/20 08:24:33;;;;;;;14.23;6.53;;;;;;;18.83;60.23;99791.47;4393413;32;20451;-85
2023/03/20 08:26:58;;;;;;;10.43;5.65;;;;;;;18.97;60.23;99783.50;4393496;32;20121;-86
2023/03/20 08:29:24;;;;;;;10.88;5.90;;;;;;;18.89;60.23;99790.22;4380037;32;20133;-84
2023/03/20 08:31:49;;;;;;;10.02;5.72;;;;;;;18.75;60.22;99790.28;4379941;32;20144;-85
2023/03/20 08:34:15;;;;;;;12.02;5.28;;;;;;;18.96;60.24;99789.72;4379826;32;20114;-85
2023/03/20 08:36:40;;;;;;;10.35;5.57;;;;;;;19.08;60.25;99787.22;4379942;32;20158;-85
2023/03/20 08:39:06;;;;;;;9.20;5.72;;;;;;;18.85;60.23;99792.22;4379703;32;20138;-84
2023/03/20 08:41:32;;;;;;;11.77;5.53;;;;;;;18.90;60.23;99794.53;4393246;32;20089;-85
2023/03/20 08:43:57;;;;;;;14.10;5.90;;;;;;;18.87;60.23;99795.59;4393664;32;20133;-85
2023/03/20 08:46:23;;;;;;;10.88;5.20;;;;;;;18.76;60.22;99791.97;4380011;32;20161;-84
2023/03/20 08:48:48;;;;;;;11.20;5.15;;;;;;;18.77;60.23;99801.56;4379229;32;21558;-85
2023/03/20 08:51:13;;;;;;;11.07;6.72;;;;;;;18.92;60.24;99800.56;4379326;32;20138;-85
2023/03/20 08:53:39;;;;;;;12.10;6.82;;;;;;;18.93;60.24;99803.13;4379464;32;20153;-84
2023/03/20 08:56:05;;;;;;;14.87;7.25;;;;;;;18.83;60.23;99803.81;4379532;32;20498;-84
2023/03/20 08:58:30;;;;;;;12.85;6.57;;;;;;;18.76;60.24;99803.37;4393582;32;20113;-85
2023/03/20 09:00:56;;;;;;;12.85;6.55;;;;;;;18.69;60.23;99808.19;4367110;32;20130;-84
2023/03/20 09:03:21;;;;;;;12.85;6.60;;;;;;;18.61;60.21;99815.69;4379654;32;20139;-84
2023/03/20 09:05:47;;;;;;;12.82;6.62;;;;;;;18.58;60.21;99818.53;4379673;32;20154;-84
2023/03/20 09:08:13;;;;;;;13.95;6.03;;;;;;;18.77;60.23;99812.13;4379662;32;20480;-85
2023/03/20 09:10:39;;;;;;;14.80;6.03;;;;;;;19.01;60.25;99813.16;4379291;32;20082;-85
2023/03/20 09:13:05;;;;;;;10.10;5.87;;;;;;;19.16;60.25;99809.50;4366946;32;20725;-84
2023/03/20 09:15:30;;;;;;;12.52;6.32;;;;;;;19.42;60.26;99809.56;4366700;32;20498;-85
2023/03/20 09:17:56;;;;;;;10.57;6.25;;;;;;;19.55;60.27;99810.44;4366724;32;20455;-84
2023/03/20 09:20:21;;;;;;;12.23;6.07;;;;;;;19.70;60.28;99813.84;4378963;32;20134;-84
2023/03/20 09:22:46;;;;;;;9.95;5.75;;;;;;;19.72;60.28;99810.16;4378846;32;22013;-84
2023/03/20 09:25:12;;;;;;;13.90;5.93;;;;;;;19.77;60.29;99813.31;4379152;32;20110;-85
2023/03/20 09:27:38;;;;;;;11.40;5.72;;;;;;;19.87;60.29;99810.87;4379448;32;20169;-84
2023/03/20 09:30:05;;;;;;;12.85;6.32;;;;;;;19.85;60.29;99803.03;4379355;32;20095;-84
2023/03/20 09:32:31;;;;;;;10.77;5.95;;;;;;;19.84;60.29;99800.50;4379387;32;20502;-84
2023/03/20 09:34:57;;;;;;;11.10;6.12;;;;;;;19.61;60.28;99802.09;4379240;32;20099;-84
2023/03/20 09:37:22;;;;;;;13.27;5.93;;;;;;;19.42;60.26;99801.66;4379226;32;20157;-84
2023/03/20 09:39:48;;;;;;;11.07;5.62;;;;;;;19.56;60.27;99810.34;4378697;32;20126;-84
2023/03/20 09:42:19;;;;;;;8.50;5.45;;;;;;;19.63;60.27;99802.84;4379024;32;20245;-84
2023/03/20 09:44:48;;;;;;;11.07;5.37;;;;;;;19.74;60.27;99797.69;4392853;32;20482;-84
2023/03/20 09:47:41;;;;;;;9.23;5.00;;;;;;;19.88;60.29;99800.22;4379070;32;20509;-84
2023/03/20 09:50:28;;;;;;;8.30;5.12;;;;;;;19.93;60.29;99795.44;4404296;32;20161;-84
2023/03/20 09:53:34;;;;;;;10.23;4.68;;;;;;;20.08;60.30;99800.59;4394303;32;20443;-84
2023/03/20 09:56:00;;;;;;;9.15;4.82;;;;;;;20.14;60.31;99798.38;4351645;32;20119;-84
2023/03/20 09:58:34;;;;;;;9.77;4.95;;;;;;;20.21;60.30;99804.91;4348109;32;20122;-84
2023/03/20 10:01:01;;;;;;;10.45;5.57;;;;;;;19.97;60.29;99805.81;4371980;32;20505;-84
2023/03/20 10:03:31;;;;;;;11.43;5.55;;;;;;;19.64;60.27;99799.28;4393921;32;20370;-84
2023/03/20 10:06:02;;;;;;;11.95;5.78;;;;;;;19.53;60.28;99810.56;4394059;32;20213;-84
2023/03/20 10:08:35;;;;;;;9.52;5.43;;;;;;;19.50;60.27;99802.81;4382845;32;20171;-85
2023/03/20 10:11:23;;;;;;;10.25;5.65;;;;;;;19.69;60.28;99799.78;4395867;32;20081;-84
2023/03/20 10:14:00;;;;;;;10.52;6.18;;;;;;;20.05;60.30;99798.19;4395687;32;20093;-84
2023/03/20 10:16:38;;;;;;;10.48;5.80;;;;;;;20.14;60.31;99798.38;4409513;32;20482;-85
2023/03/20 10:19:43;;;;;;;12.70;6.07;;;;;;;20.05;60.29;99790.25;4409627;32;20106;-85
2023/03/20 10:22:30;;;;;;;9.60;5.03;;;;;;;20.47;60.32;99795.16;4335029;33;20160;-84
2023/03/20 10:25:15;;;;;;;9.43;5.68;;;;;;;20.62;60.34;99808.25;4407153;32;20090;-84
2023/03/20 10:28:05;;;;;;;9.13;5.87;;;;;;;20.42;60.32;99793.81;4395823;32;20137;-84
2023/03/20 10:31:15;;;;;;;11.82;6.10;;;;;;;20.41;60.32;99792.97;4383649;32;20102;-84
2023/03/20 10:34:00;;;;;;;10.77;6.15;;;;;;;20.22;60.30;99787.25;4385312;32;20462;-84
2023/03/20 10:36:38;;;;;;;9.93;5.12;;;;;;;19.97;60.29;99787.31;4395707;32;20094;-84
2023/03/20 10:39:22;;;;;;;12.85;6.32;;;;;;;20.00;60.29;99784.44;4409372;32;20479;-83
2023/03/20 10:41:55;;;;;;;11.02;5.45;;;;;;;19.99;60.31;99788.88;4409513;32;20110;-84
2023/03/20 10:44:27;;;;;;;12.30;5.55;;;;;;;20.01;60.30;99786.97;4370428;32;20165;-84
2023/03/20 10:46:52;;;;;;;9.13;5.47;;;;;;;20.11;60.30;99784.53;4409400;32;20498;-84
2023/03/20 10:49:23;;;;;;;9.77;5.03;;;;;;;19.87;60.29;99790.59;4382816;32;20189;-84
2023/03/20 10:51:50;;;;;;;9.85;5.28;;;;;;;19.76;60.29;99779.94;4383427;32;20106;-84
2023/03/20 10:54:38;;;;;;;12.93;5.65;;;;;;;19.73;60.28;99789.88;4382991;32;20099;-84
2023/03/20 10:57:04;;;;;;;7.55;4.97;;;;;;;19.81;60.28;99780.44;4383353;32;20097;-84
2023/03/20 10:59:39;;;;;;;12.85;5.47;;;;;;;19.78;60.29;99779.81;4382750;32;20164;-84
2023/03/20 11:02:10;;;;;;;10.32;5.68;;;;;;;20.03;60.30;99786.88;4396501;32;20132;-84
2023/03/20 11:04:35;;;;;;;11.32;5.35;;;;;;;20.28;60.31;99781.53;4395765;32;20116;-84
2023/03/20 11:07:25;;;;;;;7.18;4.72;;;;;;;20.34;60.31;99773.16;4395459;32;20121;-84
2023/03/20 11:10:03;;;;;;;11.93;5.35;;;;;;;20.35;60.31;99768.75;4409349;32;20121;-84
2023/03/20 11:12:36;;;;;;;10.75;5.35;;;;;;;20.36;60.32;99768.62;4409342;32;20403;-84
2023/03/20 11:15:14;;;;;;;10.00;5.45;;;;;;;20.29;60.31;99771.81;4383580;32;20112;-85
2023/03/20 11:17:40;;;;;;;8.85;5.82;;;;;;;20.08;60.31;99769.72;4409226;32;20124;-84
2023/03/20 11:20:06;;;;;;;12.15;5.60;;;;;;;20.14;60.30;99765.84;4408207;32;20363;-84
2023/03/20 11:22:31;;;;;;;11.95;5.28;;;;;;;20.05;60.30;99764.66;4382767;32;20482;-84
2023/03/20 11:25:00;;;;;;;12.82;6.03;;;;;;;19.87;60.29;99765.97;4408894;32;20141;-84
2023/03/20 11:27:27;;;;;;;12.00;5.87;;;;;;;19.91;60.29;99762.19;4383063;32;20444;-84
2023/03/20 11:29:52;;;;;;;11.12;6.45;;;;;;;20.04;60.30;99762.97;4382839;32;20430;-84
2023/03/20 11:32:30;;;;;;;12.43;6.00;;;;;;;20.02;60.30;99759.59;4382832;32;20187;-84
2023/03/20 11:34:58;;;;;;;11.18;6.55;;;;;;;20.01;60.30;99762.34;4409181;32;20137;-84
2023/03/20 11:37:28;;;;;;;10.27;5.82;;;;;;;19.97;60.30;99753.81;4395617;32;20144;-84